Time;durP1;ratioP1;P1;durP2;ratioP2;P2;SDS_P1;SDS_P2;PMS_P1;PMS_P2;Temp;Humidity;BMP_temperature;BMP_pressure;BME280_temperature;BME280_humidity;BME280_pressure;Samples;Min_cycle;Max_cycle;Signal;HPM_P1;HPM_P2
2021/01/31 00:00:35;;;;;;;10.77;8.40;;;-1.10;99.90;;;;;;4982752;28;20282;-91
2021/01/31 00:03:04;;;;;;;10.05;7.85;;;-1.10;99.90;;;;;;4981413;28;20550;-93
2021/01/31 00:05:31;;;;;;;10.27;8.07;;;-1.10;99.90;;;;;;4992726;28;20190;-93
2021/01/31 00:07:59;;;;;;;11.95;8.85;;;-1.10;99.90;;;;;;5001464;28;20267;-93
2021/01/31 00:10:28;;;;;;;13.60;9.18;;;-1.20;99.90;;;;;;4999151;28;20213;-93
2021/01/31 00:12:54;;;;;;;11.80;7.93;;;-1.20;99.90;;;;;;5000511;28;20222;-92
2021/01/31 00:15:23;;;;;;;12.30;9.23;;;-1.40;99.90;;;;;;4990862;28;20219;-92
2021/01/31 00:17:50;;;;;;;13.05;9.75;;;-1.20;99.90;;;;;;4981503;28;20187;-92
2021/01/31 00:20:18;;;;;;;12.73;9.88;;;-1.20;99.90;;;;;;4989904;28;20200;-93
2021/01/31 00:22:45;;;;;;;13.02;9.02;;;-1.30;99.90;;;;;;4997240;28;20191;-92
2021/01/31 00:25:14;;;;;;;12.57;9.63;;;-1.30;99.90;;;;;;4987864;28;20290;-91
2021/01/31 00:27:41;;;;;;;10.43;9.18;;;-1.30;99.90;;;;;;5005142;28;20259;-91
2021/01/31 00:30:11;;;;;;;12.32;9.20;;;-1.40;99.90;;;;;;4999844;28;20241;-92
2021/01/31 00:32:38;;;;;;;11.90;8.45;;;-1.40;99.90;;;;;;5010258;28;20627;-93
2021/01/31 00:35:05;;;;;;;11.20;9.10;;;-1.20;99.90;;;;;;5002079;28;20212;-93
2021/01/31 00:37:31;;;;;;;11.52;8.88;;;-1.40;99.90;;;;;;4999030;28;20218;-92
2021/01/31 00:39:58;;;;;;;11.73;9.15;;;-1.50;99.90;;;;;;4998272;28;20251;-93
2021/01/31 00:42:26;;;;;;;12.30;8.38;;;-1.50;99.90;;;;;;4989713;28;20282;-93
2021/01/31 00:44:55;;;;;;;13.65;8.65;;;-1.50;99.90;;;;;;4985028;28;20191;-94
2021/01/31 00:47:22;;;;;;;10.45;8.25;;;-1.50;99.90;;;;;;4984291;28;20653;-93
2021/01/31 00:49:50;;;;;;;11.25;7.45;;;-1.60;99.90;;;;;;4986959;28;20282;-92
2021/01/31 00:52:20;;;;;;;10.68;8.15;;;-1.50;99.90;;;;;;4983375;28;20195;-92
2021/01/31 00:54:46;;;;;;;11.18;8.82;;;-1.60;99.90;;;;;;4998000;28;20220;-92
2021/01/31 00:57:13;;;;;;;12.38;9.23;;;-1.60;99.90;;;;;;5001258;28;20612;-93
2021/01/31 00:59:40;;;;;;;12.35;8.77;;;-1.60;99.90;;;;;;4999945;28;20191;-91
2021/01/31 01:02:08;;;;;;;12.25;9.85;;;-1.70;99.90;;;;;;5001512;28;20194;-91
2021/01/31 01:04:35;;;;;;;13.57;9.50;;;-1.70;99.90;;;;;;4986241;28;20229;-92
2021/01/31 01:07:01;;;;;;;11.48;8.55;;;-1.70;99.90;;;;;;4980475;28;20658;-92
2021/01/31 01:09:28;;;;;;;12.80;9.38;;;-1.70;99.90;;;;;;4981213;28;20197;-91
2021/01/31 01:11:54;;;;;;;10.32;9.00;;;-1.70;99.90;;;;;;4980849;28;20237;-93
2021/01/31 01:14:21;;;;;;;10.75;8.80;;;-1.80;99.90;;;;;;4991497;28;20302;-92
2021/01/31 01:16:48;;;;;;;13.23;8.27;;;-1.70;99.90;;;;;;4993526;28;20203;-93
2021/01/31 01:19:14;;;;;;;11.70;8.30;;;-1.70;99.90;;;;;;4981454;28;20195;-93
2021/01/31 01:21:41;;;;;;;11.27;8.40;;;-1.80;99.90;;;;;;4979634;28;20206;-91
2021/01/31 01:24:08;;;;;;;10.88;8.70;;;-1.80;99.90;;;;;;4980110;28;20190;-92
2021/01/31 01:26:34;;;;;;;11.43;8.55;;;-1.70;99.90;;;;;;4979297;28;20214;-93
2021/01/31 01:29:01;;;;;;;10.90;8.77;;;-1.80;99.90;;;;;;4981297;28;20191;-92
2021/01/31 01:31:27;;;;;;;13.35;9.57;;;-1.70;99.90;;;;;;4983470;28;20186;-91
2021/01/31 01:33:55;;;;;;;10.27;8.75;;;-1.70;99.90;;;;;;4980222;28;20211;-92
2021/01/31 01:36:22;;;;;;;11.93;8.30;;;-1.70;99.90;;;;;;4983612;28;20194;-92
2021/01/31 01:38:49;;;;;;;9.90;7.57;;;-1.70;99.90;;;;;;4989407;28;20266;-93
2021/01/31 01:41:15;;;;;;;10.95;9.23;;;-1.70;99.90;;;;;;4980523;28;20189;-92
2021/01/31 01:43:44;;;;;;;11.98;8.05;;;-1.70;99.90;;;;;;4988572;28;20194;-91
2021/01/31 01:46:34;;;;;;;14.15;8.85;;;-1.70;99.90;;;;;;4997658;28;20186;-92
2021/01/31 01:49:07;;;;;;;12.10;8.30;;;-1.70;99.90;;;;;;4997618;28;20594;-92
2021/01/31 01:51:38;;;;;;;11.90;8.52;;;-1.80;99.90;;;;;;5001428;28;20186;-92
2021/01/31 01:54:07;;;;;;;9.10;8.00;;;-1.80;99.90;;;;;;5001485;28;20570;-92
2021/01/31 01:56:39;;;;;;;12.25;8.13;;;-1.80;99.90;;;;;;4996659;28;20195;-92
2021/01/31 01:59:08;;;;;;;11.85;10.15;;;-1.80;99.90;;;;;;4981952;28;20201;-92
2021/01/31 02:01:35;;;;;;;12.98;9.50;;;-1.90;99.90;;;;;;4998687;28;20217;-94
2021/01/31 02:04:03;;;;;;;10.93;8.63;;;-2.00;99.90;;;;;;5003966;28;20550;-92
2021/01/31 02:06:30;;;;;;;12.23;8.82;;;-2.00;99.90;;;;;;4995397;28;20215;-93
2021/01/31 02:08:59;;;;;;;13.07;9.20;;;-1.90;99.90;;;;;;4997202;28;20546;-92
2021/01/31 02:11:26;;;;;;;13.55;9.20;;;-2.00;99.90;;;;;;5000820;28;20250;-93
2021/01/31 02:13:57;;;;;;;9.77;8.77;;;-2.10;99.90;;;;;;4986623;28;20238;-91
2021/01/31 02:16:28;;;;;;;13.48;8.85;;;-2.20;99.90;;;;;;4980513;28;20254;-91
2021/01/31 02:19:09;;;;;;;14.38;9.20;;;-2.20;99.90;;;;;;4987701;28;20265;-92
2021/01/31 02:21:59;;;;;;;12.75;9.43;;;-2.10;99.90;;;;;;4980186;28;20274;-93
2021/01/31 02:24:40;;;;;;;11.35;8.18;;;-2.20;99.90;;;;;;4998228;28;20194;-92
2021/01/31 02:27:32;;;;;;;11.57;8.32;;;-2.30;99.90;;;;;;4998273;28;20657;-93
2021/01/31 02:30:34;;;;;;;12.40;8.45;;;-2.20;99.90;;;;;;4990262;28;20274;-92
2021/01/31 02:33:45;;;;;;;12.10;8.20;;;-2.30;99.90;;;;;;4990767;28;20549;-92
2021/01/31 02:36:23;;;;;;;11.15;9.60;;;-2.30;99.90;;;;;;4998058;28;20194;-92
2021/01/31 02:39:00;;;;;;;17.85;9.48;;;-2.40;99.90;;;;;;4979303;28;20186;-91
2021/01/31 02:41:31;;;;;;;13.63;10.40;;;-2.40;99.90;;;;;;4990786;28;20251;-92
2021/01/31 02:43:59;;;;;;;16.98;11.02;;;-2.40;99.90;;;;;;4983435;28;20187;-91
2021/01/31 02:46:33;;;;;;;12.68;9.07;;;-2.50;99.90;;;;;;4985327;28;20186;-92
2021/01/31 02:49:05;;;;;;;12.85;8.50;;;-2.50;99.90;;;;;;4985018;28;20198;-92
2021/01/31 02:51:36;;;;;;;10.63;8.18;;;-2.50;99.90;;;;;;4982586;28;20271;-91
2021/01/31 02:54:08;;;;;;;13.57;9.73;;;-2.50;99.90;;;;;;4978016;28;20309;-92
2021/01/31 02:56:39;;;;;;;13.10;9.57;;;-2.50;99.90;;;;;;4978811;28;20191;-92
2021/01/31 02:59:11;;;;;;;12.15;8.95;;;-2.60;99.90;;;;;;4977884;28;20265;-92
2021/01/31 03:01:42;;;;;;;11.02;8.10;;;-2.30;99.90;;;;;;4977838;28;20190;-92
2021/01/31 03:04:16;;;;;;;11.25;9.13;;;-2.50;99.90;;;;;;4978226;28;20218;-92
2021/01/31 03:06:48;;;;;;;12.50;9.95;;;-2.50;99.90;;;;;;4982627;28;20276;-91
2021/01/31 03:09:26;;;;;;;11.63;8.52;;;-2.50;99.90;;;;;;4998276;28;20179;-91
2021/01/31 03:11:59;;;;;;;9.85;8.32;;;-2.50;99.90;;;;;;5000624;28;20771;-92
2021/01/31 03:14:30;;;;;;;12.48;8.65;;;-2.50;99.90;;;;;;4995417;28;20210;-92
2021/01/31 03:17:01;;;;;;;11.57;8.85;;;-2.60;99.90;;;;;;4981695;28;20194;-92
2021/01/31 03:19:33;;;;;;;13.32;9.45;;;-2.50;99.90;;;;;;4987829;28;20194;-91
2021/01/31 03:22:03;;;;;;;12.93;11.02;;;-2.50;99.90;;;;;;4996406;28;20187;-91
2021/01/31 03:24:33;;;;;;;11.10;8.02;;;-2.60;99.90;;;;;;4982587;28;20190;-93
2021/01/31 03:27:03;;;;;;;11.82;9.02;;;-2.60;99.90;;;;;;4982936;28;20187;-92
2021/01/31 03:29:29;;;;;;;12.98;9.65;;;-2.60;99.90;;;;;;4983153;28;20258;-90
2021/01/31 03:31:59;;;;;;;14.07;11.45;;;-2.60;99.90;;;;;;4985467;28;20187;-92
2021/01/31 03:34:31;;;;;;;12.55;9.35;;;-2.60;99.90;;;;;;5000141;28;20214;-91
2021/01/31 03:37:02;;;;;;;11.82;9.10;;;-2.60;99.90;;;;;;5000312;28;20189;-91
2021/01/31 03:39:31;;;;;;;10.75;8.70;;;-2.60;99.90;;;;;;4982473;28;20191;-92
2021/01/31 03:41:58;;;;;;;10.30;9.18;;;-2.70;99.90;;;;;;4982948;28;20191;-91
2021/01/31 03:44:25;;;;;;;12.35;8.43;;;-2.70;99.90;;;;;;4997670;28;20195;-91
2021/01/31 03:46:57;;;;;;;10.77;9.18;;;-2.80;99.90;;;;;;4987182;28;20198;-92
2021/01/31 03:49:30;;;;;;;12.32;8.85;;;-2.80;99.90;;;;;;5000923;28;20202;-91
2021/01/31 03:51:57;;;;;;;13.40;8.50;;;-2.80;99.90;;;;;;5001297;28;20191;-92
2021/01/31 03:54:24;;;;;;;12.77;9.27;;;-2.90;99.90;;;;;;5001179;28;20221;-92
2021/01/31 03:56:53;;;;;;;15.25;11.30;;;-2.90;99.90;;;;;;5000136;28;20198;-93
2021/01/31 03:59:26;;;;;;;15.13;10.80;;;-2.90;99.90;;;;;;4999054;28;20194;-91
2021/01/31 04:01:55;;;;;;;12.35;9.55;;;-2.90;99.90;;;;;;4980346;28;20199;-92
2021/01/31 04:04:30;;;;;;;17.58;10.05;;;-2.90;99.90;;;;;;4981180;28;20198;-91
2021/01/31 04:06:59;;;;;;;14.52;10.05;;;-3.00;99.90;;;;;;4980935;28;20220;-91
2021/01/31 04:09:26;;;;;;;14.70;10.82;;;-2.90;99.90;;;;;;4980289;28;20202;-91
2021/01/31 04:12:03;;;;;;;14.13;11.27;;;-3.00;99.90;;;;;;4980440;28;20222;-91
2021/01/31 04:14:38;;;;;;;13.65;10.05;;;-3.00;99.90;;;;;;4981641;28;20222;-90
2021/01/31 04:17:04;;;;;;;13.85;9.57;;;-3.00;99.90;;;;;;4999393;28;20186;-91
2021/01/31 04:19:35;;;;;;;14.90;11.10;;;-3.00;99.90;;;;;;4998764;28;20190;-91
2021/01/31 04:22:01;;;;;;;13.00;8.75;;;-3.00;99.90;;;;;;4978740;28;20195;-90
2021/01/31 04:24:27;;;;;;;14.50;10.30;;;-3.10;99.90;;;;;;4979997;28;20198;-91
2021/01/31 04:26:54;;;;;;;15.20;11.52;;;-3.10;99.90;;;;;;4995048;28;20216;-91
2021/01/31 04:29:20;;;;;;;12.77;9.93;;;-3.20;99.90;;;;;;4998870;28;20198;-91
2021/01/31 04:31:46;;;;;;;13.88;9.73;;;-3.20;99.90;;;;;;4991805;28;20242;-90
2021/01/31 04:34:13;;;;;;;13.02;9.45;;;-3.20;99.90;;;;;;4999770;28;20282;-91
2021/01/31 04:36:40;;;;;;;14.55;9.98;;;-3.20;99.90;;;;;;4981036;28;20207;-90
2021/01/31 04:39:07;;;;;;;13.10;11.05;;;-3.20;99.90;;;;;;4980747;28;20201;-90
2021/01/31 04:41:37;;;;;;;15.82;11.15;;;-3.10;99.90;;;;;;4978851;28;20205;-90
2021/01/31 04:44:04;;;;;;;14.55;11.30;;;-3.20;99.90;;;;;;4978680;28;20202;-90
2021/01/31 04:46:44;;;;;;;15.50;12.82;;;-3.20;99.90;;;;;;4978609;28;20259;-90
2021/01/31 04:49:27;;;;;;;15.90;11.18;;;-3.10;99.90;;;;;;4988024;28;20208;-91
2021/01/31 04:52:25;;;;;;;14.27;11.35;;;-3.30;99.90;;;;;;4997966;28;20205;-91
2021/01/31 04:55:19;;;;;;;12.65;11.05;;;-3.30;99.90;;;;;;4995165;28;20220;-91
2021/01/31 04:57:51;;;;;;;17.90;13.77;;;-3.30;99.90;;;;;;5004634;28;20198;-90
2021/01/31 05:00:21;;;;;;;15.80;11.40;;;-3.20;99.90;;;;;;4994153;28;20201;-90
2021/01/31 05:02:51;;;;;;;13.57;10.65;;;-3.20;99.90;;;;;;4988997;28;20205;-90
2021/01/31 05:05:22;;;;;;;14.48;10.75;;;-3.30;99.90;;;;;;5001482;28;20269;-90
2021/01/31 05:07:54;;;;;;;13.30;9.98;;;-3.30;99.90;;;;;;5002050;28;20190;-90
2021/01/31 05:10:20;;;;;;;17.13;11.77;;;-3.30;99.90;;;;;;4985751;28;20321;-90
2021/01/31 05:12:55;;;;;;;14.88;11.65;;;-3.30;99.90;;;;;;4978602;28;20223;-91
2021/01/31 05:15:25;;;;;;;14.55;10.57;;;-3.40;99.90;;;;;;4978776;28;20249;-91
2021/01/31 05:17:55;;;;;;;15.88;10.50;;;-3.40;99.90;;;;;;4980159;28;20191;-91
2021/01/31 05:20:25;;;;;;;15.80;11.68;;;-3.40;99.90;;;;;;5001283;28;20676;-91
2021/01/31 05:22:55;;;;;;;13.98;10.80;;;-3.40;99.90;;;;;;5003983;28;20187;-90
2021/01/31 05:25:26;;;;;;;18.58;11.32;;;-3.50;99.90;;;;;;4988939;28;20201;-90
2021/01/31 05:27:55;;;;;;;13.73;9.45;;;-3.50;99.90;;;;;;4982438;28;20198;-91
2021/01/31 05:30:22;;;;;;;17.55;10.45;;;-3.60;99.90;;;;;;4996803;28;20186;-90
2021/01/31 05:33:05;;;;;;;16.20;10.88;;;-3.60;99.90;;;;;;5004521;28;20281;-90
2021/01/31 05:35:33;;;;;;;16.33;11.00;;;-3.70;99.90;;;;;;4996254;28;20209;-91
2021/01/31 05:38:01;;;;;;;14.73;11.40;;;-3.70;99.90;;;;;;5001819;28;20192;-90
2021/01/31 05:40:30;;;;;;;17.05;11.63;;;-3.80;99.90;;;;;;4987489;28;20198;-90
2021/01/31 05:42:57;;;;;;;16.48;11.00;;;-3.80;99.90;;;;;;4978001;28;20183;-90
2021/01/31 05:45:34;;;;;;;15.48;10.48;;;-3.80;99.90;;;;;;4977212;28;20246;-90
2021/01/31 05:48:14;;;;;;;15.20;11.40;;;-3.80;99.90;;;;;;4990055;28;20248;-90
2021/01/31 05:50:42;;;;;;;16.23;11.88;;;-3.90;99.90;;;;;;4996788;28;20589;-90
2021/01/31 05:53:29;;;;;;;17.85;10.15;;;-3.80;99.90;;;;;;4996601;28;20190;-90
2021/01/31 05:56:13;;;;;;;17.23;12.20;;;-3.80;99.90;;;;;;5012078;28;20281;-88
2021/01/31 05:58:40;;;;;;;23.65;12.90;;;-3.90;99.90;;;;;;5000895;28;20189;-92
2021/01/31 06:01:08;;;;;;;18.85;11.45;;;-3.90;99.90;;;;;;4990274;28;20202;-91
2021/01/31 06:03:35;;;;;;;20.52;14.25;;;-4.00;99.90;;;;;;4977579;28;20187;-91
2021/01/31 06:06:15;;;;;;;19.70;11.82;;;-4.00;99.90;;;;;;4978025;28;20197;-91
2021/01/31 06:08:44;;;;;;;16.05;11.10;;;-4.00;99.90;;;;;;4977795;28;20186;-92
2021/01/31 06:11:20;;;;;;;17.77;11.45;;;-4.00;99.90;;;;;;4981213;28;20218;-91
2021/01/31 06:13:49;;;;;;;16.00;11.68;;;-3.80;99.90;;;;;;4977162;28;20187;-91
2021/01/31 06:16:19;;;;;;;16.92;13.85;;;-3.80;99.90;;;;;;4978064;28;20245;-91
2021/01/31 06:18:48;;;;;;;15.15;12.25;;;-3.70;99.90;;;;;;4978849;28;20194;-91
2021/01/31 06:21:16;;;;;;;19.70;12.90;;;-3.80;99.90;;;;;;4985045;28;20289;-91
2021/01/31 06:23:45;;;;;;;14.98;12.02;;;-3.80;99.90;;;;;;4980274;28;20265;-91
2021/01/31 06:26:23;;;;;;;15.90;12.02;;;-3.80;99.90;;;;;;4989159;28;20216;-91
2021/01/31 06:28:54;;;;;;;17.30;12.02;;;-3.90;99.90;;;;;;4996216;28;20197;-91
2021/01/31 06:31:31;;;;;;;13.57;10.75;;;-3.90;99.90;;;;;;4989177;28;20252;-91
2021/01/31 06:33:58;;;;;;;20.60;12.27;;;-3.90;99.90;;;;;;4984036;28;20217;-91
2021/01/31 06:36:40;;;;;;;17.13;11.98;;;-3.90;99.90;;;;;;4979434;28;20660;-90
2021/01/31 06:39:29;;;;;;;19.10;11.68;;;-3.90;99.90;;;;;;4978238;28;20194;-90
2021/01/31 06:42:06;;;;;;;17.25;12.15;;;-3.90;99.90;;;;;;4977495;28;20187;-91
2021/01/31 06:44:44;;;;;;;22.42;14.02;;;-4.00;99.90;;;;;;4978138;28;20205;-91
2021/01/31 06:47:24;;;;;;;15.30;11.50;;;-4.10;99.90;;;;;;4979277;28;20191;-91
2021/01/31 06:50:02;;;;;;;16.70;11.93;;;-4.10;99.90;;;;;;4976812;28;20187;-91
2021/01/31 06:52:41;;;;;;;20.10;12.45;;;-4.10;99.90;;;;;;4985252;28;20799;-91
2021/01/31 06:55:22;;;;;;;20.17;13.45;;;-4.00;99.90;;;;;;4978487;28;20246;-91
2021/01/31 06:58:03;;;;;;;17.25;12.48;;;-4.00;99.90;;;;;;4979533;28;20187;-91
2021/01/31 07:00:43;;;;;;;21.70;13.35;;;-4.00;99.90;;;;;;4979994;28;20195;-92
2021/01/31 07:03:21;;;;;;;22.30;15.00;;;-4.00;99.90;;;;;;4992424;28;20257;-91
2021/01/31 07:06:14;;;;;;;17.65;11.48;;;-4.00;99.90;;;;;;4993549;28;20196;-91
2021/01/31 07:09:22;;;;;;;19.10;13.52;;;-3.70;99.90;;;;;;4980103;28;20197;-91
2021/01/31 07:11:56;;;;;;;14.73;11.35;;;-4.00;99.90;;;;;;4984124;28;20222;-92
2021/01/31 07:14:44;;;;;;;17.92;14.20;;;-4.10;99.90;;;;;;4982784;28;20876;-93
2021/01/31 07:17:35;;;;;;;19.85;13.48;;;-4.10;99.90;;;;;;4989668;28;20198;-92
2021/01/31 07:20:07;;;;;;;19.30;13.23;;;-4.10;99.90;;;;;;4978713;28;20190;-91
2021/01/31 07:22:40;;;;;;;18.63;13.18;;;-4.10;99.90;;;;;;4987702;28;20190;-91
2021/01/31 07:25:12;;;;;;;19.02;13.30;;;-4.10;99.90;;;;;;4993822;28;20190;-92
2021/01/31 07:27:45;;;;;;;21.15;13.68;;;-4.10;99.90;;;;;;4986973;28;20210;-91
2021/01/31 07:30:19;;;;;;;17.98;11.90;;;-4.10;99.90;;;;;;4981311;28;20238;-91
2021/01/31 07:32:55;;;;;;;17.85;12.77;;;-4.20;99.90;;;;;;4980753;28;20178;-91
2021/01/31 07:35:26;;;;;;;17.45;12.57;;;-4.20;99.90;;;;;;4975208;28;20214;-90
2021/01/31 07:38:02;;;;;;;14.10;11.65;;;-4.20;99.90;;;;;;4980273;28;20190;-90
2021/01/31 07:40:31;;;;;;;19.90;13.52;;;-4.30;99.90;;;;;;4987413;28;20641;-89
2021/01/31 07:43:02;;;;;;;16.45;11.02;;;-4.30;99.90;;;;;;4980382;28;20202;-92
2021/01/31 07:45:29;;;;;;;19.85;13.25;;;-4.20;99.90;;;;;;4988868;28;20190;-91
2021/01/31 07:48:35;;;;;;;19.45;13.73;;;-4.20;99.90;;;;;;4994249;28;20191;-93
2021/01/31 07:51:04;;;;;;;20.10;12.98;;;-4.20;99.90;;;;;;4996322;28;20209;-93
2021/01/31 07:53:35;;;;;;;20.00;13.95;;;-4.10;99.90;;;;;;4994775;28;20194;-93
2021/01/31 07:56:29;;;;;;;21.23;14.60;;;-4.10;99.90;;;;;;5312485;23;20298;-95
2021/01/31 07:59:02;;;;;;;16.80;12.50;;;-4.00;99.90;;;;;;4983330;28;20237;-95
2021/01/31 08:01:47;;;;;;;21.85;14.30;;;-4.00;99.90;;;;;;4984019;28;20194;-92
2021/01/31 08:04:48;;;;;;;21.58;15.35;;;-4.00;99.90;;;;;;4984830;28;20249;-93
2021/01/31 08:07:48;;;;;;;24.77;15.48;;;-3.90;99.90;;;;;;4992083;28;20187;-95
2021/01/31 08:10:41;;;;;;;28.52;18.23;;;-3.90;99.90;;;;;;4985064;28;20266;-92
2021/01/31 08:13:12;;;;;;;22.95;16.05;;;-3.80;99.90;;;;;;4981423;28;20274;-91
2021/01/31 08:15:42;;;;;;;24.42;16.48;;;-3.80;99.90;;;;;;4981144;28;20214;-91
2021/01/31 08:18:11;;;;;;;17.35;13.15;;;-3.70;99.90;;;;;;4980521;28;20242;-91
2021/01/31 08:20:48;;;;;;;18.98;15.25;;;-3.70;99.90;;;;;;4981476;28;20191;-92
2021/01/31 08:23:52;;;;;;;20.67;14.75;;;-3.60;99.90;;;;;;4983030;28;20661;-89
2021/01/31 08:26:42;;;;;;;18.67;13.90;;;-3.50;99.90;;;;;;4982458;28;20278;-92
2021/01/31 08:29:26;;;;;;;22.20;14.75;;;-3.50;99.90;;;;;;5137804;23;20267;-95
2021/01/31 08:32:16;;;;;;;17.13;13.77;;;-3.50;99.90;;;;;;4996025;23;20261;-94
2021/01/31 08:35:26;;;;;;;19.52;13.52;;;-3.30;99.90;;;;;;4965774;28;20242;-94
2021/01/31 08:38:12;;;;;;;20.33;17.08;;;-3.30;99.90;;;;;;4964698;28;20272;-94
2021/01/31 08:40:41;;;;;;;21.13;14.45;;;-3.20;99.90;;;;;;4964748;28;20200;-95
2021/01/31 08:43:17;;;;;;;25.33;15.52;;;-3.10;99.90;;;;;;4970714;28;20218;-94
2021/01/31 08:45:47;;;;;;;23.13;16.08;;;-3.00;99.90;;;;;;4973500;28;20226;-94
2021/01/31 08:48:28;;;;;;;22.13;15.75;;;-2.90;99.90;;;;;;4977300;28;20219;-94
2021/01/31 08:51:05;;;;;;;21.88;15.15;;;-2.90;99.90;;;;;;4972160;28;20210;-94
2021/01/31 08:53:34;;;;;;;21.08;14.75;;;-2.70;99.90;;;;;;4964376;28;20214;-94
2021/01/31 08:56:21;;;;;;;20.92;14.30;;;-2.60;99.90;;;;;;4964551;28;20223;-95
2021/01/31 08:58:58;;;;;;;17.27;12.07;;;-2.60;99.90;;;;;;4967435;28;20187;-93
2021/01/31 09:01:27;;;;;;;17.65;13.68;;;-2.40;99.90;;;;;;4966222;28;20203;-94
2021/01/31 09:03:55;;;;;;;19.13;13.18;;;-2.50;99.90;;;;;;4966334;28;20195;-95
2021/01/31 09:06:25;;;;;;;17.50;13.52;;;-2.40;99.90;;;;;;4964738;28;20191;-93
2021/01/31 09:08:55;;;;;;;16.67;13.60;;;-2.40;99.90;;;;;;4965786;28;20203;-94
2021/01/31 09:11:24;;;;;;;17.52;12.35;;;-2.20;99.90;;;;;;4968317;28;20207;-93
2021/01/31 09:13:50;;;;;;;18.02;12.95;;;-2.20;99.90;;;;;;4968231;28;20203;-94
2021/01/31 09:16:23;;;;;;;17.88;13.43;;;-2.10;99.90;;;;;;4966720;28;20231;-93
2021/01/31 09:19:07;;;;;;;14.18;11.90;;;-2.20;99.90;;;;;;4967358;28;20282;-93
2021/01/31 09:21:36;;;;;;;15.73;13.00;;;-2.00;99.90;;;;;;4963383;28;20184;-93
2021/01/31 09:24:06;;;;;;;19.08;13.85;;;-2.00;99.90;;;;;;4963502;28;20192;-93
2021/01/31 09:26:33;;;;;;;18.45;12.15;;;-1.90;99.90;;;;;;4963883;28;20271;-92
2021/01/31 09:29:01;;;;;;;17.13;11.98;;;-1.80;99.90;;;;;;4963784;28;20287;-92
2021/01/31 09:31:35;;;;;;;16.80;11.40;;;-1.70;99.90;;;;;;4963717;28;20659;-93
2021/01/31 09:34:06;;;;;;;20.33;13.70;;;-1.70;99.90;;;;;;4963279;28;20219;-94
2021/01/31 09:36:35;;;;;;;18.20;12.43;;;-1.50;99.90;;;;;;4963949;28;20195;-92
2021/01/31 09:39:05;;;;;;;17.83;12.20;;;-1.40;99.90;;;;;;4965019;28;20208;-93
2021/01/31 09:41:37;;;;;;;15.13;11.60;;;-1.30;99.90;;;;;;4963484;28;20188;-92
2021/01/31 09:44:14;;;;;;;14.90;10.93;;;-1.20;99.90;;;;;;4963037;28;20238;-93
2021/01/31 09:47:01;;;;;;;17.95;11.73;;;-1.10;99.90;;;;;;4966841;28;20195;-93
2021/01/31 10:03:20;;;;;;;12.60;9.73;;;-0.30;99.90;;;;;;6014749;23;20210;-92
2021/01/31 10:08:54;;;;;;;13.43;10.15;;;-0.10;99.90;;;;;;4951175;29;20234;-89
2021/01/31 10:11:33;;;;;;;17.98;12.15;;;0.00;99.90;;;;;;4947991;29;20194;-88
2021/01/31 10:14:01;;;;;;;14.55;10.68;;;0.10;99.90;;;;;;4946843;29;20203;-88
2021/01/31 10:16:30;;;;;;;17.88;11.25;;;0.20;99.90;;;;;;4943043;29;20569;-89
2021/01/31 10:19:09;;;;;;;15.85;11.85;;;0.40;99.90;;;;;;4938035;29;20212;-89
2021/01/31 10:21:37;;;;;;;15.65;10.82;;;0.50;99.90;;;;;;4938128;29;20217;-90
2021/01/31 10:24:19;;;;;;;16.38;12.18;;;0.60;99.90;;;;;;4938504;29;20196;-90
2021/01/31 10:26:46;;;;;;;14.82;11.43;;;0.70;99.90;;;;;;4920137;29;20189;-88
2021/01/31 10:29:28;;;;;;;14.65;9.73;;;0.80;99.90;;;;;;4938161;29;20629;-88
2021/01/31 10:31:54;;;;;;;14.02;9.90;;;0.90;99.90;;;;;;4937655;29;20691;-87
2021/01/31 10:34:38;;;;;;;13.45;10.25;;;1.00;99.90;;;;;;4938297;29;20228;-88
2021/01/31 10:37:12;;;;;;;16.95;9.60;;;1.10;99.90;;;;;;4937162;29;20257;-87
2021/01/31 10:39:39;;;;;;;11.43;8.30;;;1.20;99.90;;;;;;4938994;29;20656;-88
2021/01/31 10:42:05;;;;;;;13.68;9.23;;;1.30;99.90;;;;;;4939306;29;20195;-88
2021/01/31 10:44:32;;;;;;;12.02;9.05;;;1.40;99.90;;;;;;4941277;29;20233;-87
2021/01/31 10:46:59;;;;;;;13.60;10.10;;;1.50;99.90;;;;;;4940587;29;20193;-87
2021/01/31 10:49:26;;;;;;;10.13;8.23;;;1.60;99.90;;;;;;4938937;29;20710;-88
2021/01/31 10:51:53;;;;;;;9.52;6.47;;;1.70;99.90;;;;;;4938462;29;20199;-87
2021/01/31 10:54:21;;;;;;;12.00;8.80;;;1.90;99.90;;;;;;4938339;29;20198;-87
2021/01/31 10:56:47;;;;;;;12.30;7.90;;;2.00;99.90;;;;;;4937320;29;20293;-87
2021/01/31 10:59:14;;;;;;;11.00;7.70;;;2.00;99.90;;;;;;4940249;29;20186;-88
2021/01/31 11:01:43;;;;;;;10.38;7.55;;;2.10;99.90;;;;;;4941707;29;20684;-88
2021/01/31 11:04:09;;;;;;;9.75;6.93;;;2.10;99.90;;;;;;4942317;29;20254;-87
2021/01/31 11:06:35;;;;;;;11.93;6.60;;;2.10;99.90;;;;;;4944240;29;20266;-87
2021/01/31 11:09:04;;;;;;;7.65;6.03;;;2.20;99.90;;;;;;4943402;29;20214;-87
2021/01/31 11:11:30;;;;;;;11.82;8.55;;;2.20;99.90;;;;;;4941414;29;20202;-87
2021/01/31 11:13:56;;;;;;;13.30;8.00;;;2.20;99.90;;;;;;4937432;29;20199;-87
2021/01/31 11:16:23;;;;;;;13.18;8.23;;;2.20;99.90;;;;;;4938368;29;20226;-87
2021/01/31 11:18:49;;;;;;;9.43;7.05;;;2.20;99.90;;;;;;4937121;29;20211;-88
2021/01/31 11:21:20;;;;;;;8.77;6.70;;;2.30;99.90;;;;;;4938613;29;20207;-88
2021/01/31 11:23:46;;;;;;;13.38;8.25;;;2.40;99.90;;;;;;4938680;29;20233;-88
2021/01/31 11:26:14;;;;;;;12.48;8.07;;;2.50;99.90;;;;;;4938658;29;20196;-88
2021/01/31 11:28:41;;;;;;;10.05;7.45;;;2.60;99.90;;;;;;4939665;29;20200;-87
2021/01/31 11:31:09;;;;;;;11.05;7.53;;;2.60;99.90;;;;;;4949786;29;20223;-88
2021/01/31 11:33:35;;;;;;;12.02;7.40;;;2.70;99.90;;;;;;4945666;29;20233;-88
2021/01/31 11:36:01;;;;;;;8.77;7.07;;;2.70;99.90;;;;;;4940669;29;20223;-88
2021/01/31 11:38:28;;;;;;;12.45;8.30;;;2.70;99.90;;;;;;4940458;29;20662;-88
2021/01/31 11:40:54;;;;;;;9.10;7.50;;;2.90;99.90;;;;;;4941579;29;20254;-89
2021/01/31 11:43:22;;;;;;;10.25;6.97;;;3.20;99.90;;;;;;4940867;29;20199;-88
2021/01/31 11:45:48;;;;;;;10.70;7.93;;;3.50;99.90;;;;;;4940919;29;20636;-88
2021/01/31 11:48:14;;;;;;;8.10;7.00;;;3.90;99.90;;;;;;4940357;29;20224;-88
2021/01/31 11:50:41;;;;;;;12.40;8.88;;;4.50;99.90;;;;;;4940610;29;20196;-89
2021/01/31 11:53:07;;;;;;;10.48;6.57;;;5.00;99.90;;;;;;4940401;29;20203;-88
2021/01/31 11:55:33;;;;;;;8.88;6.28;;;5.50;99.90;;;;;;4940115;29;20258;-89
2021/01/31 11:58:00;;;;;;;12.05;8.20;;;5.90;99.90;;;;;;4940509;29;20188;-89
2021/01/31 12:00:27;;;;;;;10.75;7.65;;;6.30;99.90;;;;;;4940636;29;20203;-89
2021/01/31 12:02:53;;;;;;;9.73;7.25;;;6.50;99.90;;;;;;4928684;29;20188;-89
2021/01/31 12:05:22;;;;;;;7.75;6.53;;;6.80;99.90;;;;;;4940912;29;20243;-89
2021/01/31 12:07:48;;;;;;;10.32;6.10;;;7.30;99.90;;;;;;4941306;29;20188;-89
2021/01/31 12:10:16;;;;;;;7.80;6.93;;;8.10;99.90;;;;;;4941137;29;20221;-89
2021/01/31 12:12:42;;;;;;;7.78;6.45;;;8.40;99.90;;;;;;4942466;29;20194;-89
2021/01/31 12:15:12;;;;;;;9.07;6.30;;;9.00;99.90;;;;;;4943840;29;20212;-89
2021/01/31 12:17:39;;;;;;;10.13;7.57;;;9.40;99.90;;;;;;4940329;29;20636;-89
2021/01/31 12:20:06;;;;;;;8.45;6.97;;;9.80;99.90;;;;;;4939523;29;20196;-89
2021/01/31 12:22:33;;;;;;;8.32;6.40;;;9.50;99.90;;;;;;4939068;29;20192;-89
2021/01/31 12:25:00;;;;;;;9.10;6.50;;;9.60;99.90;;;;;;4941955;29;20196;-88
2021/01/31 12:27:27;;;;;;;8.77;5.90;;;9.70;99.90;;;;;;4945003;29;20200;-89
2021/01/31 12:29:54;;;;;;;7.15;5.43;;;9.80;99.90;;;;;;4941710;29;20206;-89
2021/01/31 12:32:20;;;;;;;9.23;6.72;;;9.30;99.90;;;;;;4935902;29;20287;-90
2021/01/31 12:34:48;;;;;;;9.05;6.57;;;9.40;99.90;;;;;;4940899;29;20216;-89
2021/01/31 12:37:16;;;;;;;9.90;7.43;;;9.80;99.90;;;;;;4940274;29;20189;-91
2021/01/31 12:39:42;;;;;;;7.88;5.53;;;10.30;99.90;;;;;;4938294;29;20216;-90
2021/01/31 12:42:09;;;;;;;6.60;5.60;;;10.60;99.90;;;;;;4939168;29;20203;-91
2021/01/31 12:44:37;;;;;;;7.43;5.13;;;11.30;99.90;;;;;;4941917;29;20203;-91
2021/01/31 12:47:03;;;;;;;7.60;5.63;;;11.80;99.90;;;;;;4939495;29;20194;-91
2021/01/31 12:49:30;;;;;;;7.15;5.28;;;11.90;99.90;;;;;;4939496;29;20207;-91
2021/01/31 12:51:57;;;;;;;6.97;5.57;;;11.90;99.90;;;;;;4929204;29;20641;-90
2021/01/31 12:54:23;;;;;;;8.55;5.30;;;11.80;99.90;;;;;;4941688;29;20251;-89
2021/01/31 12:56:50;;;;;;;10.75;7.75;;;11.30;99.90;;;;;;4939090;29;20204;-91
2021/01/31 12:59:16;;;;;;;9.52;5.75;;;11.30;99.90;;;;;;4931369;29;20198;-91
2021/01/31 13:01:43;;;;;;;6.68;5.50;;;11.00;99.90;;;;;;4938620;29;20205;-89
2021/01/31 13:04:09;;;;;;;7.28;5.18;;;10.70;99.90;;;;;;4939780;29;20228;-89
2021/01/31 13:06:35;;;;;;;6.85;5.45;;;10.40;99.90;;;;;;4939179;29;20192;-88
2021/01/31 13:09:03;;;;;;;7.05;5.55;;;10.40;99.90;;;;;;4938472;29;20204;-89
2021/01/31 13:11:30;;;;;;;6.68;5.18;;;10.60;99.90;;;;;;4939343;29;20199;-88
2021/01/31 13:13:56;;;;;;;8.50;6.05;;;10.60;99.90;;;;;;4938878;29;20200;-88
2021/01/31 13:16:22;;;;;;;8.80;5.97;;;10.20;99.90;;;;;;4936908;29;20684;-89